ePrivacy and GPDR Cookie Consent by Cookie Consent
EmailTwitter


Surface observations / United Kingdom / EGLL (03772)

Regions: Quebec | Canada | USA | Europe | France | UK | Elsewhere
Station
Display
Info & Location for EGLL (03772) | Help decoding METAR

Weather Conditions observed on 2024/03/04 at 22:20 UTC at LONDON/HEATHROW, UK (EGLL)

Sky conditions: overcast.

Temperature: 6.0 Celsius.

Dewpoint: 4.0 Celsius.

Relative Humidity: 87%

Windchill Factor 2.

Winds: Southeast at 22 km/h or 12 knots.

Mean Sea level Pressure: 100.80 kilopascals.

Horizontal visibility: 6.21 statute miles or 9.94 kilometers.

Height of the Ceiling: 335 metres ( 1100 feet ).

Coded METAR:

EGLL 042220Z AUTO 15012KT 9999 OVC011 06/04 Q1008 TEMPO RA=